sensor_id;sensor_type;location;lat;lon;timestamp;P1;durP1;ratioP1;P2;durP2;ratioP2
173;SDS011;75;48.784;9.364;2022-07-10T00:01:56;11.83;;;10.30;;
173;SDS011;75;48.784;9.364;2022-07-10T00:04:22;13.80;;;11.03;;
173;SDS011;75;48.784;9.364;2022-07-10T00:06:48;11.37;;;10.00;;
173;SDS011;75;48.784;9.364;2022-07-10T00:09:14;11.23;;;10.57;;
173;SDS011;75;48.784;9.364;2022-07-10T00:11:41;12.10;;;11.20;;
173;SDS011;75;48.784;9.364;2022-07-10T00:14:07;12.90;;;11.63;;
173;SDS011;75;48.784;9.364;2022-07-10T00:16:34;12.37;;;10.40;;
173;SDS011;75;48.784;9.364;2022-07-10T00:19:00;11.27;;;10.53;;
173;SDS011;75;48.784;9.364;2022-07-10T00:21:26;11.73;;;10.60;;
173;SDS011;75;48.784;9.364;2022-07-10T00:23:52;11.90;;;10.90;;
173;SDS011;75;48.784;9.364;2022-07-10T00:26:18;15.37;;;10.03;;
173;SDS011;75;48.784;9.364;2022-07-10T00:28:44;11.43;;;10.17;;
173;SDS011;75;48.784;9.364;2022-07-10T00:31:10;11.77;;;10.27;;
173;SDS011;75;48.784;9.364;2022-07-10T00:33:37;11.33;;;10.50;;
173;SDS011;75;48.784;9.364;2022-07-10T00:36:03;13.87;;;10.40;;
173;SDS011;75;48.784;9.364;2022-07-10T00:38:30;12.00;;;10.90;;
173;SDS011;75;48.784;9.364;2022-07-10T00:40:56;11.70;;;10.53;;
173;SDS011;75;48.784;9.364;2022-07-10T00:43:22;11.90;;;10.60;;
173;SDS011;75;48.784;9.364;2022-07-10T00:45:49;10.90;;;9.90;;
173;SDS011;75;48.784;9.364;2022-07-10T00:48:15;12.30;;;10.40;;
173;SDS011;75;48.784;9.364;2022-07-10T00:50:42;10.30;;;9.80;;
173;SDS011;75;48.784;9.364;2022-07-10T00:53:10;11.80;;;10.10;;
173;SDS011;75;48.784;9.364;2022-07-10T00:55:37;11.37;;;10.40;;
173;SDS011;75;48.784;9.364;2022-07-10T00:58:05;11.30;;;9.77;;
173;SDS011;75;48.784;9.364;2022-07-10T01:00:32;11.67;;;10.40;;
173;SDS011;75;48.784;9.364;2022-07-10T01:02:58;11.30;;;10.30;;
173;SDS011;75;48.784;9.364;2022-07-10T01:05:24;12.60;;;10.70;;
173;SDS011;75;48.784;9.364;2022-07-10T01:07:50;11.90;;;10.70;;
173;SDS011;75;48.784;9.364;2022-07-10T01:10:16;13.50;;;11.50;;
173;SDS011;75;48.784;9.364;2022-07-10T01:12:43;11.80;;;11.03;;
173;SDS011;75;48.784;9.364;2022-07-10T01:15:09;13.27;;;11.03;;
173;SDS011;75;48.784;9.364;2022-07-10T01:17:36;11.20;;;10.53;;
173;SDS011;75;48.784;9.364;2022-07-10T01:20:08;13.10;;;12.40;;
173;SDS011;75;48.784;9.364;2022-07-10T01:22:37;12.90;;;11.40;;
173;SDS011;75;48.784;9.364;2022-07-10T01:25:04;12.47;;;10.87;;
173;SDS011;75;48.784;9.364;2022-07-10T01:27:30;14.23;;;11.50;;
173;SDS011;75;48.784;9.364;2022-07-10T01:29:56;12.20;;;10.33;;
173;SDS011;75;48.784;9.364;2022-07-10T01:32:23;13.93;;;11.20;;
173;SDS011;75;48.784;9.364;2022-07-10T01:34:49;15.37;;;11.50;;
173;SDS011;75;48.784;9.364;2022-07-10T01:37:15;15.10;;;12.17;;
173;SDS011;75;48.784;9.364;2022-07-10T01:39:41;14.10;;;12.60;;
173;SDS011;75;48.784;9.364;2022-07-10T01:42:07;12.37;;;11.00;;
173;SDS011;75;48.784;9.364;2022-07-10T01:44:33;12.23;;;11.13;;
173;SDS011;75;48.784;9.364;2022-07-10T01:46:59;12.27;;;11.67;;
173;SDS011;75;48.784;9.364;2022-07-10T01:49:25;13.20;;;11.57;;
173;SDS011;75;48.784;9.364;2022-07-10T01:51:51;11.70;;;10.60;;
173;SDS011;75;48.784;9.364;2022-07-10T01:54:17;14.77;;;12.00;;
173;SDS011;75;48.784;9.364;2022-07-10T01:56:43;13.87;;;11.77;;
173;SDS011;75;48.784;9.364;2022-07-10T01:59:09;14.03;;;11.23;;
173;SDS011;75;48.784;9.364;2022-07-10T02:01:35;15.83;;;13.57;;
173;SDS011;75;48.784;9.364;2022-07-10T02:04:02;15.53;;;13.13;;
173;SDS011;75;48.784;9.364;2022-07-10T02:06:46;12.63;;;11.97;;
173;SDS011;75;48.784;9.364;2022-07-10T02:09:12;14.60;;;12.87;;
173;SDS011;75;48.784;9.364;2022-07-10T02:11:39;16.80;;;13.63;;
173;SDS011;75;48.784;9.364;2022-07-10T02:14:05;16.17;;;14.23;;
173;SDS011;75;48.784;9.364;2022-07-10T02:16:33;14.97;;;13.70;;
173;SDS011;75;48.784;9.364;2022-07-10T02:19:00;16.53;;;14.30;;
173;SDS011;75;48.784;9.364;2022-07-10T02:21:26;15.50;;;13.90;;
173;SDS011;75;48.784;9.364;2022-07-10T02:23:52;16.43;;;14.77;;
173;SDS011;75;48.784;9.364;2022-07-10T02:26:18;17.40;;;14.80;;
173;SDS011;75;48.784;9.364;2022-07-10T02:28:44;17.83;;;14.50;;
173;SDS011;75;48.784;9.364;2022-07-10T02:31:10;20.30;;;14.87;;
173;SDS011;75;48.784;9.364;2022-07-10T02:33:36;16.50;;;14.33;;
173;SDS011;75;48.784;9.364;2022-07-10T02:36:03;17.40;;;14.87;;
173;SDS011;75;48.784;9.364;2022-07-10T02:38:29;17.43;;;15.00;;
173;SDS011;75;48.784;9.364;2022-07-10T02:40:55;15.70;;;14.30;;
173;SDS011;75;48.784;9.364;2022-07-10T02:43:21;16.27;;;14.63;;
173;SDS011;75;48.784;9.364;2022-07-10T02:45:47;17.00;;;15.30;;
173;SDS011;75;48.784;9.364;2022-07-10T02:48:16;16.77;;;13.80;;
173;SDS011;75;48.784;9.364;2022-07-10T02:50:43;15.20;;;14.27;;
173;SDS011;75;48.784;9.364;2022-07-10T02:53:09;16.97;;;14.50;;
173;SDS011;75;48.784;9.364;2022-07-10T02:55:35;15.63;;;14.30;;
173;SDS011;75;48.784;9.364;2022-07-10T02:58:01;15.83;;;14.03;;
173;SDS011;75;48.784;9.364;2022-07-10T03:00:28;21.10;;;14.17;;
173;SDS011;75;48.784;9.364;2022-07-10T03:02:55;14.80;;;13.30;;
173;SDS011;75;48.784;9.364;2022-07-10T03:05:21;18.60;;;14.37;;
173;SDS011;75;48.784;9.364;2022-07-10T03:07:47;16.20;;;15.17;;
173;SDS011;75;48.784;9.364;2022-07-10T03:10:13;19.43;;;14.33;;
173;SDS011;75;48.784;9.364;2022-07-10T03:12:39;18.33;;;14.73;;
173;SDS011;75;48.784;9.364;2022-07-10T03:15:05;16.43;;;13.87;;
173;SDS011;75;48.784;9.364;2022-07-10T03:17:32;19.70;;;15.70;;
173;SDS011;75;48.784;9.364;2022-07-10T03:19:58;18.10;;;14.30;;
173;SDS011;75;48.784;9.364;2022-07-10T03:22:24;16.47;;;14.43;;
173;SDS011;75;48.784;9.364;2022-07-10T03:24:50;14.73;;;13.57;;
173;SDS011;75;48.784;9.364;2022-07-10T03:27:16;16.03;;;13.47;;
173;SDS011;75;48.784;9.364;2022-07-10T03:29:42;16.73;;;13.43;;
173;SDS011;75;48.784;9.364;2022-07-10T03:32:08;14.53;;;12.50;;
173;SDS011;75;48.784;9.364;2022-07-10T03:34:34;14.63;;;12.67;;
173;SDS011;75;48.784;9.364;2022-07-10T03:37:00;16.23;;;13.47;;
173;SDS011;75;48.784;9.364;2022-07-10T03:39:26;19.23;;;14.50;;
173;SDS011;75;48.784;9.364;2022-07-10T03:41:52;18.10;;;14.57;;
173;SDS011;75;48.784;9.364;2022-07-10T03:44:18;16.50;;;13.47;;
173;SDS011;75;48.784;9.364;2022-07-10T03:46:44;18.17;;;15.00;;
173;SDS011;75;48.784;9.364;2022-07-10T03:49:10;18.53;;;14.37;;
173;SDS011;75;48.784;9.364;2022-07-10T03:51:36;17.73;;;14.53;;
173;SDS011;75;48.784;9.364;2022-07-10T03:54:03;18.73;;;15.97;;
173;SDS011;75;48.784;9.364;2022-07-10T03:56:29;19.10;;;15.10;;
173;SDS011;75;48.784;9.364;2022-07-10T03:59:13;14.90;;;12.97;;
173;SDS011;75;48.784;9.364;2022-07-10T04:01:39;23.57;;;15.80;;
173;SDS011;75;48.784;9.364;2022-07-10T04:04:05;18.50;;;14.50;;
173;SDS011;75;48.784;9.364;2022-07-10T04:06:31;15.80;;;13.80;;
173;SDS011;75;48.784;9.364;2022-07-10T04:08:57;16.40;;;14.50;;
173;SDS011;75;48.784;9.364;2022-07-10T04:11:23;18.53;;;15.90;;
173;SDS011;75;48.784;9.364;2022-07-10T04:13:49;18.23;;;14.37;;
173;SDS011;75;48.784;9.364;2022-07-10T04:16:15;16.37;;;14.17;;
173;SDS011;75;48.784;9.364;2022-07-10T04:18:41;16.20;;;13.63;;
173;SDS011;75;48.784;9.364;2022-07-10T04:21:08;17.40;;;14.43;;
173;SDS011;75;48.784;9.364;2022-07-10T04:23:34;14.53;;;13.23;;
173;SDS011;75;48.784;9.364;2022-07-10T04:26:00;17.83;;;14.37;;
173;SDS011;75;48.784;9.364;2022-07-10T04:28:26;16.13;;;13.77;;
173;SDS011;75;48.784;9.364;2022-07-10T04:30:52;14.47;;;13.37;;
173;SDS011;75;48.784;9.364;2022-07-10T04:33:18;16.23;;;12.90;;
173;SDS011;75;48.784;9.364;2022-07-10T04:35:44;16.13;;;12.50;;
173;SDS011;75;48.784;9.364;2022-07-10T04:38:10;17.07;;;12.33;;
173;SDS011;75;48.784;9.364;2022-07-10T04:40:36;14.27;;;12.47;;
173;SDS011;75;48.784;9.364;2022-07-10T04:43:02;12.00;;;11.43;;
173;SDS011;75;48.784;9.364;2022-07-10T04:45:28;15.00;;;11.10;;
173;SDS011;75;48.784;9.364;2022-07-10T04:47:54;12.13;;;10.10;;
173;SDS011;75;48.784;9.364;2022-07-10T04:50:20;15.67;;;11.40;;
173;SDS011;75;48.784;9.364;2022-07-10T04:52:46;12.97;;;10.53;;
173;SDS011;75;48.784;9.364;2022-07-10T04:55:12;14.50;;;11.13;;
173;SDS011;75;48.784;9.364;2022-07-10T04:57:38;14.53;;;11.70;;
173;SDS011;75;48.784;9.364;2022-07-10T05:00:06;12.13;;;10.63;;
173;SDS011;75;48.784;9.364;2022-07-10T05:02:33;15.17;;;10.70;;
173;SDS011;75;48.784;9.364;2022-07-10T05:04:59;15.30;;;10.50;;
173;SDS011;75;48.784;9.364;2022-07-10T05:07:25;14.80;;;11.70;;
173;SDS011;75;48.784;9.364;2022-07-10T05:09:51;10.97;;;9.70;;
173;SDS011;75;48.784;9.364;2022-07-10T05:12:17;20.23;;;10.30;;
173;SDS011;75;48.784;9.364;2022-07-10T05:14:43;13.33;;;10.57;;
173;SDS011;75;48.784;9.364;2022-07-10T05:17:09;13.33;;;9.70;;
173;SDS011;75;48.784;9.364;2022-07-10T05:19:35;12.70;;;10.00;;
173;SDS011;75;48.784;9.364;2022-07-10T05:22:01;11.13;;;9.13;;
173;SDS011;75;48.784;9.364;2022-07-10T05:24:27;12.83;;;9.73;;
173;SDS011;75;48.784;9.364;2022-07-10T05:26:53;19.83;;;10.20;;
173;SDS011;75;48.784;9.364;2022-07-10T05:29:19;11.70;;;8.70;;
173;SDS011;75;48.784;9.364;2022-07-10T05:31:45;11.50;;;8.90;;
173;SDS011;75;48.784;9.364;2022-07-10T05:34:11;11.60;;;8.73;;
173;SDS011;75;48.784;9.364;2022-07-10T05:36:37;13.33;;;10.30;;
173;SDS011;75;48.784;9.364;2022-07-10T05:39:03;10.80;;;9.10;;
173;SDS011;75;48.784;9.364;2022-07-10T05:41:29;14.00;;;9.90;;
173;SDS011;75;48.784;9.364;2022-07-10T05:43:58;12.70;;;9.77;;
173;SDS011;75;48.784;9.364;2022-07-10T05:46:24;12.03;;;9.10;;
173;SDS011;75;48.784;9.364;2022-07-10T05:48:50;11.70;;;9.30;;
173;SDS011;75;48.784;9.364;2022-07-10T05:51:16;11.53;;;8.70;;
173;SDS011;75;48.784;9.364;2022-07-10T05:53:42;11.23;;;8.27;;
173;SDS011;75;48.784;9.364;2022-07-10T05:56:08;12.07;;;8.30;;
173;SDS011;75;48.784;9.364;2022-07-10T05:58:34;11.10;;;7.73;;
173;SDS011;75;48.784;9.364;2022-07-10T06:01:00;9.13;;;7.73;;
173;SDS011;75;48.784;9.364;2022-07-10T06:03:26;10.53;;;7.47;;
173;SDS011;75;48.784;9.364;2022-07-10T06:05:53;8.53;;;6.73;;
173;SDS011;75;48.784;9.364;2022-07-10T06:08:19;11.30;;;7.17;;
173;SDS011;75;48.784;9.364;2022-07-10T06:10:45;11.20;;;7.30;;
173;SDS011;75;48.784;9.364;2022-07-10T06:13:12;10.10;;;6.50;;
173;SDS011;75;48.784;9.364;2022-07-10T06:15:38;8.30;;;6.30;;
173;SDS011;75;48.784;9.364;2022-07-10T06:18:04;8.87;;;5.70;;
173;SDS011;75;48.784;9.364;2022-07-10T06:20:30;10.30;;;5.67;;
173;SDS011;75;48.784;9.364;2022-07-10T06:22:57;7.73;;;5.53;;
173;SDS011;75;48.784;9.364;2022-07-10T06:25:23;8.37;;;5.83;;
173;SDS011;75;48.784;9.364;2022-07-10T06:27:49;10.70;;;5.80;;
173;SDS011;75;48.784;9.364;2022-07-10T06:30:15;9.07;;;6.30;;
173;SDS011;75;48.784;9.364;2022-07-10T06:32:41;11.33;;;5.20;;
173;SDS011;75;48.784;9.364;2022-07-10T06:35:09;8.67;;;5.13;;
173;SDS011;75;48.784;9.364;2022-07-10T06:37:35;8.97;;;5.20;;
173;SDS011;75;48.784;9.364;2022-07-10T06:40:01;8.60;;;5.07;;
173;SDS011;75;48.784;9.364;2022-07-10T06:42:27;9.30;;;5.07;;
173;SDS011;75;48.784;9.364;2022-07-10T06:44:53;9.83;;;4.93;;
173;SDS011;75;48.784;9.364;2022-07-10T06:47:20;6.57;;;4.40;;
173;SDS011;75;48.784;9.364;2022-07-10T06:50:05;8.73;;;4.10;;
173;SDS011;75;48.784;9.364;2022-07-10T06:52:34;9.13;;;4.60;;
173;SDS011;75;48.784;9.364;2022-07-10T06:55:01;6.00;;;4.03;;
173;SDS011;75;48.784;9.364;2022-07-10T06:57:27;6.53;;;3.87;;
173;SDS011;75;48.784;9.364;2022-07-10T06:59:54;5.27;;;4.00;;
173;SDS011;75;48.784;9.364;2022-07-10T07:02:20;7.90;;;4.30;;
173;SDS011;75;48.784;9.364;2022-07-10T07:04:46;6.60;;;3.80;;
173;SDS011;75;48.784;9.364;2022-07-10T07:07:13;5.33;;;3.70;;
173;SDS011;75;48.784;9.364;2022-07-10T07:09:39;5.30;;;3.60;;
173;SDS011;75;48.784;9.364;2022-07-10T07:12:06;6.87;;;4.10;;
173;SDS011;75;48.784;9.364;2022-07-10T07:14:33;10.63;;;5.07;;
173;SDS011;75;48.784;9.364;2022-07-10T07:16:59;7.80;;;4.27;;
173;SDS011;75;48.784;9.364;2022-07-10T07:19:33;9.33;;;3.90;;
173;SDS011;75;48.784;9.364;2022-07-10T07:22:19;7.27;;;4.10;;
173;SDS011;75;48.784;9.364;2022-07-10T07:25:04;3.70;;;2.93;;
173;SDS011;75;48.784;9.364;2022-07-10T07:27:30;6.10;;;3.70;;
173;SDS011;75;48.784;9.364;2022-07-10T07:29:56;5.30;;;3.20;;
173;SDS011;75;48.784;9.364;2022-07-10T07:32:22;6.63;;;3.83;;
173;SDS011;75;48.784;9.364;2022-07-10T07:34:48;11.90;;;3.70;;
173;SDS011;75;48.784;9.364;2022-07-10T07:37:14;5.70;;;3.47;;
173;SDS011;75;48.784;9.364;2022-07-10T07:39:40;5.83;;;3.50;;
173;SDS011;75;48.784;9.364;2022-07-10T07:42:06;5.07;;;3.20;;
173;SDS011;75;48.784;9.364;2022-07-10T07:44:32;12.17;;;4.03;;
173;SDS011;75;48.784;9.364;2022-07-10T07:46:58;6.60;;;3.43;;
173;SDS011;75;48.784;9.364;2022-07-10T07:49:24;4.53;;;3.27;;
173;SDS011;75;48.784;9.364;2022-07-10T07:51:50;5.20;;;3.20;;
173;SDS011;75;48.784;9.364;2022-07-10T07:54:16;7.03;;;3.60;;
173;SDS011;75;48.784;9.364;2022-07-10T07:56:42;7.93;;;3.60;;
173;SDS011;75;48.784;9.364;2022-07-10T07:59:08;9.30;;;3.50;;
173;SDS011;75;48.784;9.364;2022-07-10T08:01:35;5.20;;;3.03;;
173;SDS011;75;48.784;9.364;2022-07-10T08:04:01;4.70;;;3.40;;
173;SDS011;75;48.784;9.364;2022-07-10T08:06:27;6.23;;;3.67;;
173;SDS011;75;48.784;9.364;2022-07-10T08:08:53;4.70;;;3.53;;
173;SDS011;75;48.784;9.364;2022-07-10T08:11:19;8.80;;;3.40;;
173;SDS011;75;48.784;9.364;2022-07-10T08:13:45;7.27;;;3.60;;
173;SDS011;75;48.784;9.364;2022-07-10T08:16:12;5.60;;;3.37;;
173;SDS011;75;48.784;9.364;2022-07-10T08:18:38;5.00;;;3.20;;
173;SDS011;75;48.784;9.364;2022-07-10T08:21:04;5.17;;;3.67;;
173;SDS011;75;48.784;9.364;2022-07-10T08:23:30;4.53;;;3.13;;
173;SDS011;75;48.784;9.364;2022-07-10T08:25:56;6.20;;;3.63;;
173;SDS011;75;48.784;9.364;2022-07-10T08:28:22;6.03;;;3.20;;
173;SDS011;75;48.784;9.364;2022-07-10T08:30:48;6.23;;;3.50;;
173;SDS011;75;48.784;9.364;2022-07-10T08:33:14;7.93;;;3.67;;
173;SDS011;75;48.784;9.364;2022-07-10T08:35:40;9.43;;;3.60;;
173;SDS011;75;48.784;9.364;2022-07-10T08:38:07;10.43;;;3.43;;
173;SDS011;75;48.784;9.364;2022-07-10T08:40:34;8.00;;;3.30;;
173;SDS011;75;48.784;9.364;2022-07-10T08:43:01;7.87;;;3.50;;
173;SDS011;75;48.784;9.364;2022-07-10T08:45:29;7.33;;;3.83;;
173;SDS011;75;48.784;9.364;2022-07-10T08:47:56;5.70;;;3.40;;
173;SDS011;75;48.784;9.364;2022-07-10T08:50:24;5.47;;;3.30;;
173;SDS011;75;48.784;9.364;2022-07-10T08:52:52;6.63;;;3.30;;
173;SDS011;75;48.784;9.364;2022-07-10T08:55:23;8.17;;;3.53;;
173;SDS011;75;48.784;9.364;2022-07-10T08:57:50;7.00;;;3.47;;
173;SDS011;75;48.784;9.364;2022-07-10T09:00:16;7.87;;;3.40;;
173;SDS011;75;48.784;9.364;2022-07-10T09:02:43;8.03;;;3.80;;
173;SDS011;75;48.784;9.364;2022-07-10T09:05:09;5.03;;;3.33;;
173;SDS011;75;48.784;9.364;2022-07-10T09:07:35;6.80;;;3.97;;
173;SDS011;75;48.784;9.364;2022-07-10T09:10:05;5.27;;;3.50;;
173;SDS011;75;48.784;9.364;2022-07-10T09:12:48;6.00;;;3.90;;
173;SDS011;75;48.784;9.364;2022-07-10T09:15:16;7.43;;;3.20;;
173;SDS011;75;48.784;9.364;2022-07-10T09:20:24;5.90;;;3.53;;
173;SDS011;75;48.784;9.364;2022-07-10T09:22:51;5.00;;;3.30;;
173;SDS011;75;48.784;9.364;2022-07-10T09:25:17;7.27;;;3.60;;
173;SDS011;75;48.784;9.364;2022-07-10T09:27:52;6.50;;;3.80;;
173;SDS011;75;48.784;9.364;2022-07-10T09:30:36;6.20;;;3.60;;
173;SDS011;75;48.784;9.364;2022-07-10T09:33:15;7.83;;;3.60;;
173;SDS011;75;48.784;9.364;2022-07-10T09:38:47;5.93;;;3.10;;
173;SDS011;75;48.784;9.364;2022-07-10T09:41:22;5.70;;;3.40;;
173;SDS011;75;48.784;9.364;2022-07-10T09:43:49;5.10;;;3.17;;
173;SDS011;75;48.784;9.364;2022-07-10T09:46:16;7.43;;;4.10;;
173;SDS011;75;48.784;9.364;2022-07-10T09:48:42;6.30;;;3.43;;
173;SDS011;75;48.784;9.364;2022-07-10T09:51:09;6.80;;;3.40;;
173;SDS011;75;48.784;9.364;2022-07-10T09:53:39;5.20;;;3.07;;
173;SDS011;75;48.784;9.364;2022-07-10T09:56:09;5.87;;;3.20;;
173;SDS011;75;48.784;9.364;2022-07-10T09:58:36;4.27;;;2.90;;
173;SDS011;75;48.784;9.364;2022-07-10T10:01:02;5.73;;;3.10;;
173;SDS011;75;48.784;9.364;2022-07-10T10:03:30;7.20;;;3.00;;
173;SDS011;75;48.784;9.364;2022-07-10T10:06:15;6.60;;;3.23;;
173;SDS011;75;48.784;9.364;2022-07-10T10:08:44;5.30;;;3.00;;
173;SDS011;75;48.784;9.364;2022-07-10T10:11:13;6.63;;;2.90;;
173;SDS011;75;48.784;9.364;2022-07-10T10:13:40;5.20;;;3.00;;
173;SDS011;75;48.784;9.364;2022-07-10T10:16:07;4.77;;;3.00;;
173;SDS011;75;48.784;9.364;2022-07-10T10:18:34;5.70;;;2.90;;
173;SDS011;75;48.784;9.364;2022-07-10T10:21:00;6.13;;;3.37;;
173;SDS011;75;48.784;9.364;2022-07-10T10:23:26;5.80;;;2.80;;
173;SDS011;75;48.784;9.364;2022-07-10T10:25:54;4.87;;;3.10;;
173;SDS011;75;48.784;9.364;2022-07-10T10:28:21;6.00;;;2.90;;
173;SDS011;75;48.784;9.364;2022-07-10T10:30:57;5.83;;;2.87;;
173;SDS011;75;48.784;9.364;2022-07-10T10:36:10;4.40;;;2.97;;
173;SDS011;75;48.784;9.364;2022-07-10T10:41:24;4.20;;;2.90;;
173;SDS011;75;48.784;9.364;2022-07-10T10:49:19;4.57;;;3.03;;
173;SDS011;75;48.784;9.364;2022-07-10T10:54:21;6.07;;;2.90;;
173;SDS011;75;48.784;9.364;2022-07-10T10:57:10;4.17;;;3.20;;
173;SDS011;75;48.784;9.364;2022-07-10T10:59:49;5.03;;;2.87;;
173;SDS011;75;48.784;9.364;2022-07-10T11:02:25;3.70;;;2.70;;
173;SDS011;75;48.784;9.364;2022-07-10T11:04:52;3.93;;;2.43;;
173;SDS011;75;48.784;9.364;2022-07-10T11:15:23;4.20;;;2.67;;
173;SDS011;75;48.784;9.364;2022-07-10T11:17:50;4.00;;;2.50;;
173;SDS011;75;48.784;9.364;2022-07-10T11:20:16;4.87;;;2.80;;
173;SDS011;75;48.784;9.364;2022-07-10T11:22:46;5.27;;;2.60;;
173;SDS011;75;48.784;9.364;2022-07-10T11:25:28;4.67;;;2.70;;
173;SDS011;75;48.784;9.364;2022-07-10T11:28:07;4.43;;;2.90;;
173;SDS011;75;48.784;9.364;2022-07-10T11:30:46;4.83;;;2.77;;
173;SDS011;75;48.784;9.364;2022-07-10T11:33:13;3.83;;;2.87;;
173;SDS011;75;48.784;9.364;2022-07-10T11:35:39;6.43;;;3.10;;
173;SDS011;75;48.784;9.364;2022-07-10T11:38:06;4.60;;;2.90;;
173;SDS011;75;48.784;9.364;2022-07-10T11:40:35;4.47;;;2.67;;
173;SDS011;75;48.784;9.364;2022-07-10T11:43:01;4.17;;;2.90;;
173;SDS011;75;48.784;9.364;2022-07-10T11:45:31;3.77;;;2.70;;
173;SDS011;75;48.784;9.364;2022-07-10T11:47:58;4.07;;;2.77;;
173;SDS011;75;48.784;9.364;2022-07-10T11:50:25;6.07;;;2.60;;
173;SDS011;75;48.784;9.364;2022-07-10T11:52:51;5.37;;;2.70;;
173;SDS011;75;48.784;9.364;2022-07-10T11:55:19;4.80;;;2.57;;
173;SDS011;75;48.784;9.364;2022-07-10T11:57:46;4.73;;;2.70;;
173;SDS011;75;48.784;9.364;2022-07-10T12:00:25;5.53;;;3.00;;
173;SDS011;75;48.784;9.364;2022-07-10T12:02:53;4.90;;;2.77;;
173;SDS011;75;48.784;9.364;2022-07-10T12:05:29;5.00;;;2.70;;
173;SDS011;75;48.784;9.364;2022-07-10T12:07:55;7.50;;;2.73;;
173;SDS011;75;48.784;9.364;2022-07-10T12:10:24;7.40;;;2.70;;
173;SDS011;75;48.784;9.364;2022-07-10T12:12:51;6.03;;;2.87;;
173;SDS011;75;48.784;9.364;2022-07-10T12:15:36;7.57;;;2.80;;
173;SDS011;75;48.784;9.364;2022-07-10T12:18:11;4.23;;;2.90;;
173;SDS011;75;48.784;9.364;2022-07-10T12:20:40;5.63;;;2.83;;
173;SDS011;75;48.784;9.364;2022-07-10T12:23:10;8.63;;;2.70;;
173;SDS011;75;48.784;9.364;2022-07-10T12:25:37;4.20;;;2.57;;
173;SDS011;75;48.784;9.364;2022-07-10T12:28:03;5.93;;;3.10;;
173;SDS011;75;48.784;9.364;2022-07-10T12:30:36;4.10;;;2.70;;
173;SDS011;75;48.784;9.364;2022-07-10T12:36:01;4.37;;;2.60;;
173;SDS011;75;48.784;9.364;2022-07-10T12:38:28;4.20;;;2.60;;
173;SDS011;75;48.784;9.364;2022-07-10T12:41:12;4.50;;;2.70;;
173;SDS011;75;48.784;9.364;2022-07-10T12:43:40;6.37;;;3.00;;
173;SDS011;75;48.784;9.364;2022-07-10T12:46:16;6.60;;;3.00;;
173;SDS011;75;48.784;9.364;2022-07-10T12:48:59;5.27;;;2.90;;
173;SDS011;75;48.784;9.364;2022-07-10T12:51:27;4.30;;;2.70;;
173;SDS011;75;48.784;9.364;2022-07-10T12:53:53;4.60;;;2.60;;
173;SDS011;75;48.784;9.364;2022-07-10T12:56:29;4.03;;;2.60;;
173;SDS011;75;48.784;9.364;2022-07-10T12:58:56;4.90;;;2.50;;
173;SDS011;75;48.784;9.364;2022-07-10T13:01:22;5.33;;;3.07;;
173;SDS011;75;48.784;9.364;2022-07-10T13:03:48;3.40;;;2.50;;
173;SDS011;75;48.784;9.364;2022-07-10T13:06:27;7.57;;;2.60;;
173;SDS011;75;48.784;9.364;2022-07-10T13:08:53;4.17;;;2.30;;
173;SDS011;75;48.784;9.364;2022-07-10T13:11:20;6.07;;;2.80;;
173;SDS011;75;48.784;9.364;2022-07-10T13:13:46;4.90;;;2.80;;
173;SDS011;75;48.784;9.364;2022-07-10T13:16:12;4.20;;;2.33;;
173;SDS011;75;48.784;9.364;2022-07-10T13:18:41;4.30;;;2.40;;
173;SDS011;75;48.784;9.364;2022-07-10T13:21:07;5.40;;;2.53;;
173;SDS011;75;48.784;9.364;2022-07-10T13:23:36;4.30;;;2.30;;
173;SDS011;75;48.784;9.364;2022-07-10T13:26:02;4.57;;;2.50;;
173;SDS011;75;48.784;9.364;2022-07-10T13:28:29;5.70;;;2.53;;
173;SDS011;75;48.784;9.364;2022-07-10T13:30:55;4.00;;;2.30;;
173;SDS011;75;48.784;9.364;2022-07-10T13:33:21;3.77;;;2.20;;
173;SDS011;75;48.784;9.364;2022-07-10T13:35:49;5.73;;;2.33;;
173;SDS011;75;48.784;9.364;2022-07-10T13:38:15;4.10;;;2.50;;
173;SDS011;75;48.784;9.364;2022-07-10T13:40:43;6.50;;;2.50;;
173;SDS011;75;48.784;9.364;2022-07-10T13:43:11;4.67;;;2.63;;
173;SDS011;75;48.784;9.364;2022-07-10T13:45:37;4.33;;;2.47;;
173;SDS011;75;48.784;9.364;2022-07-10T13:48:10;4.30;;;2.30;;
173;SDS011;75;48.784;9.364;2022-07-10T13:50:37;4.00;;;2.23;;
173;SDS011;75;48.784;9.364;2022-07-10T13:53:03;3.57;;;2.37;;
173;SDS011;75;48.784;9.364;2022-07-10T13:55:29;4.30;;;2.23;;
173;SDS011;75;48.784;9.364;2022-07-10T13:57:55;4.17;;;2.40;;
173;SDS011;75;48.784;9.364;2022-07-10T14:00:22;5.67;;;2.50;;
173;SDS011;75;48.784;9.364;2022-07-10T14:02:48;5.47;;;2.40;;
173;SDS011;75;48.784;9.364;2022-07-10T14:05:14;4.30;;;2.50;;
173;SDS011;75;48.784;9.364;2022-07-10T14:07:40;5.00;;;2.43;;
173;SDS011;75;48.784;9.364;2022-07-10T14:10:06;6.30;;;2.57;;
173;SDS011;75;48.784;9.364;2022-07-10T14:12:32;5.30;;;2.30;;
173;SDS011;75;48.784;9.364;2022-07-10T14:14:58;3.57;;;2.30;;
173;SDS011;75;48.784;9.364;2022-07-10T14:17:25;3.83;;;2.20;;
173;SDS011;75;48.784;9.364;2022-07-10T14:19:53;3.93;;;2.30;;
173;SDS011;75;48.784;9.364;2022-07-10T14:22:19;3.40;;;2.10;;
173;SDS011;75;48.784;9.364;2022-07-10T14:24:45;3.60;;;2.27;;
173;SDS011;75;48.784;9.364;2022-07-10T14:27:11;3.30;;;2.13;;
173;SDS011;75;48.784;9.364;2022-07-10T14:29:37;3.53;;;2.00;;
173;SDS011;75;48.784;9.364;2022-07-10T14:32:03;3.87;;;2.33;;
173;SDS011;75;48.784;9.364;2022-07-10T14:34:29;3.83;;;2.10;;
173;SDS011;75;48.784;9.364;2022-07-10T14:36:55;4.57;;;2.10;;
173;SDS011;75;48.784;9.364;2022-07-10T14:39:21;4.30;;;2.00;;
173;SDS011;75;48.784;9.364;2022-07-10T14:41:47;4.03;;;2.00;;
173;SDS011;75;48.784;9.364;2022-07-10T14:44:13;3.47;;;2.10;;
173;SDS011;75;48.784;9.364;2022-07-10T14:46:39;3.37;;;2.10;;
173;SDS011;75;48.784;9.364;2022-07-10T14:49:05;3.17;;;2.00;;
173;SDS011;75;48.784;9.364;2022-07-10T14:51:32;4.30;;;2.20;;
173;SDS011;75;48.784;9.364;2022-07-10T14:54:00;5.03;;;2.50;;
173;SDS011;75;48.784;9.364;2022-07-10T14:56:26;4.23;;;2.10;;
173;SDS011;75;48.784;9.364;2022-07-10T14:58:52;4.10;;;2.00;;
173;SDS011;75;48.784;9.364;2022-07-10T15:01:18;3.63;;;2.30;;
173;SDS011;75;48.784;9.364;2022-07-10T15:03:44;4.50;;;2.17;;
173;SDS011;75;48.784;9.364;2022-07-10T15:06:10;3.93;;;2.33;;
173;SDS011;75;48.784;9.364;2022-07-10T15:08:36;3.70;;;2.00;;
173;SDS011;75;48.784;9.364;2022-07-10T15:11:02;3.23;;;2.00;;
173;SDS011;75;48.784;9.364;2022-07-10T15:13:30;3.33;;;1.90;;
173;SDS011;75;48.784;9.364;2022-07-10T15:15:56;4.50;;;2.20;;
173;SDS011;75;48.784;9.364;2022-07-10T15:18:22;4.33;;;2.13;;
173;SDS011;75;48.784;9.364;2022-07-10T15:20:48;2.87;;;2.10;;
173;SDS011;75;48.784;9.364;2022-07-10T15:23:14;3.60;;;1.90;;
173;SDS011;75;48.784;9.364;2022-07-10T15:25:40;3.70;;;2.10;;
173;SDS011;75;48.784;9.364;2022-07-10T15:28:07;3.03;;;1.97;;
173;SDS011;75;48.784;9.364;2022-07-10T15:30:34;3.67;;;2.00;;
173;SDS011;75;48.784;9.364;2022-07-10T15:33:01;3.37;;;2.03;;
173;SDS011;75;48.784;9.364;2022-07-10T15:35:27;2.93;;;1.90;;
173;SDS011;75;48.784;9.364;2022-07-10T15:37:53;6.37;;;1.93;;
173;SDS011;75;48.784;9.364;2022-07-10T15:40:19;5.50;;;2.03;;
173;SDS011;75;48.784;9.364;2022-07-10T15:42:45;2.80;;;1.93;;
173;SDS011;75;48.784;9.364;2022-07-10T15:45:11;4.20;;;2.23;;
173;SDS011;75;48.784;9.364;2022-07-10T15:47:37;3.33;;;2.13;;
173;SDS011;75;48.784;9.364;2022-07-10T15:50:03;3.27;;;2.00;;
173;SDS011;75;48.784;9.364;2022-07-10T15:52:30;3.53;;;1.90;;
173;SDS011;75;48.784;9.364;2022-07-10T15:54:56;4.43;;;2.17;;
173;SDS011;75;48.784;9.364;2022-07-10T15:57:22;4.87;;;2.43;;
173;SDS011;75;48.784;9.364;2022-07-10T15:59:48;2.60;;;1.90;;
173;SDS011;75;48.784;9.364;2022-07-10T16:02:14;4.60;;;2.10;;
173;SDS011;75;48.784;9.364;2022-07-10T16:04:40;4.60;;;2.20;;
173;SDS011;75;48.784;9.364;2022-07-10T16:07:06;3.10;;;1.93;;
173;SDS011;75;48.784;9.364;2022-07-10T16:09:32;2.63;;;1.90;;
173;SDS011;75;48.784;9.364;2022-07-10T16:11:58;2.70;;;1.90;;
173;SDS011;75;48.784;9.364;2022-07-10T16:14:24;3.33;;;2.00;;
173;SDS011;75;48.784;9.364;2022-07-10T16:16:50;3.40;;;2.00;;
173;SDS011;75;48.784;9.364;2022-07-10T16:19:17;4.47;;;2.00;;
173;SDS011;75;48.784;9.364;2022-07-10T16:21:43;3.20;;;2.20;;